Naples, NY

1:33 AM EDT on March 28, 2015 (GMT -0400)
Powell Hill, South Bristol | | Change Station
CLOSE
Current Station
Personal Weather Station
Location: Naples, NY
Elevation: 1401 ft
Nearby Weather Stations

Elev 1401 ft 42.68 °N, 77.38 °W | Updated 0 second ago

Overcast
Overcast
18.9 °F
Feels Like 19 °F
N
2.0
Wind Variable Wind from NNE
Gusts 10.0 mph

Today
High -- | Low -- °F
--% Chance of Precip.
Yesterday
High -- | Low -- °F
Precip. -- in
6:59 AM 7:30 PM
First Quarter, 59% visible
Pressure 30.03 in
Visibility 10.0 miles
Clouds Few 4300 ft
Overcast 7500 ft
Windchill 19 °F
Dew Point 16 °F
Humidity 88%
Rainfall 0.00 in
Snow Depth Not available.
UV 0.0 out of 12
Pollen .70 out of 12
Air Quality Not available.
Flu Activity Not available.
METAR KDSV 280454Z AUTO 32013KT 10SM FEW043 OVC075 M05/M09 A2998 RMK AO2 SLP167 T10501094 400281050

More Conditions Fewer Conditions

Pressure 30.03 in
Visibility 10.0 miles
Clouds Few 4300 ft
Overcast 7500 ft
Windchill 19 °F
Dew Point 16 °F
Humidity 88%
Rainfall 0.00 in
Snow Depth Not available.
UV 0.0 out of 12
Pollen .70 out of 12
Air Quality Not available.
Flu Activity Not available.
METAR KDSV 280454Z AUTO 32013KT 10SM FEW043 OVC075 M05/M09 A2998 RMK AO2 SLP167 T10501094 400281050

More Conditions Fewer Conditions

10-Day Weather Forecast

Almanac

Astronomy

Mar. 28, 2015 Rise Set
Actual Time
Civil Twilight
Nautical Twilight
Astronomical Twilight
Moon
Length of Visible Light
Length of Day
Tomorrow will be .
, % of the Moon is Illuminated

Today's Extremes

State Highs State Lows

Community

WunderPhotos

Upload Photos

1,808,934 photos uploaded!

WunderBlogs® & News

Nearby

Air Quality

  Air Quality AQ Index Pollutant
Not available.

Snow Depth

Station Depth Elevation

Earthquake Activity

City Distance Mag. Time & Date
Minimum magnitude displayed is 2.5.

Coastal Water Temperatures

Place Temperature

Stations

Nearby Weather Stations

Station Location Temp. Windchill Dew Point Humidity Wind Precip. Elev Updated Type